»·PEaware :: N786SC KSBD-KEMT

N786SC :: KSBD-KEMT

FLIGHT INFORMATION

Flight Status: Arrived
Operator: Privately registered:
United States
More flights under this callsign
Pilot: Jereme M. (20698)
Aircraft: CESSNA 172 SKYHAWK
(C172)
More flights by this aircraft type
Origin: KSBD San Bernardino Intl
United States
Destination: KEMT El Monte
United States
More flights between these airports :: More routes between these airports
Route: +
File this flight plan on PilotEdge
Remarks:
Altitude:
(Current/Filed)
4,500ft
Speed:
(Current/Filed)
110kts
Departed: 09-Oct-18 06:06 PM
Arrived: 09-Oct-18 06:33 PM
Distance/Time
Traveled:
40nm/0:26
Distance/Time
To Go:
Arrived

Flight Plot

Page will automatically refresh every two minutes.


Map Options




Map Legend


Flown Route
Filed Route
Departure Airport
Arrival Airport
Navaid (VOR, NDB)
Fix

Horizontal Profiles

Position Reports

Time Latitude Longitude Heading Altitude Ground
Speed
09-Oct-18 17:21 34.102166 -117.224730 93 1161ft 0kts
09-Oct-18 17:22 34.102166 -117.224730 93 1161ft 0kts
09-Oct-18 17:23 34.102166 -117.224730 93 1161ft 0kts
09-Oct-18 17:24 34.102166 -117.224730 93 1161ft 0kts
09-Oct-18 17:25 34.102166 -117.224730 93 1161ft 0kts
09-Oct-18 17:26 34.102166 -117.224730 93 1161ft 0kts
09-Oct-18 17:27 34.102166 -117.224730 93 1161ft 0kts
09-Oct-18 17:28 34.102166 -117.224730 93 1161ft 0kts
09-Oct-18 17:29 34.102166 -117.224730 93 1161ft 0kts
09-Oct-18 17:30 34.102166 -117.224730 93 1161ft 0kts
09-Oct-18 17:31 34.102166 -117.224730 93 1161ft 0kts
09-Oct-18 17:32 34.102166 -117.224730 93 1161ft 0kts
09-Oct-18 17:33 34.102166 -117.224730 93 1161ft 0kts
09-Oct-18 17:34 34.102166 -117.224730 93 1161ft 0kts
09-Oct-18 17:35 34.102166 -117.224730 93 1161ft 0kts
09-Oct-18 17:36 34.102166 -117.224730 93 1161ft 0kts
09-Oct-18 17:37 34.102166 -117.224730 93 1161ft 0kts
09-Oct-18 17:38 34.102166 -117.224730 93 1161ft 0kts
09-Oct-18 17:39 34.102166 -117.224730 93 1161ft 0kts
09-Oct-18 17:40 34.102166 -117.224730 93 1161ft 0kts
09-Oct-18 17:41 34.102166 -117.224730 93 1161ft 0kts
09-Oct-18 17:42 34.102166 -117.224730 93 1161ft 0kts
09-Oct-18 17:43 34.102166 -117.224730 93 1161ft 0kts
09-Oct-18 17:44 34.102166 -117.224730 93 1161ft 0kts
09-Oct-18 17:45 34.102166 -117.224730 93 1161ft 0kts
09-Oct-18 17:46 34.102166 -117.224730 93 1161ft 0kts
09-Oct-18 17:47 34.102166 -117.224730 93 1161ft 0kts
09-Oct-18 17:48 34.102166 -117.224730 93 1161ft 0kts
09-Oct-18 17:49 34.102166 -117.224730 93 1161ft 0kts
09-Oct-18 17:50 34.102166 -117.224730 93 1161ft 0kts
09-Oct-18 17:51 34.102166 -117.224730 93 1161ft 0kts
09-Oct-18 17:52 34.102166 -117.224730 93 1161ft 0kts
09-Oct-18 17:53 34.102166 -117.224730 93 1161ft 0kts
09-Oct-18 17:54 34.102166 -117.224730 93 1161ft 0kts
09-Oct-18 17:55 34.102166 -117.224730 93 1161ft 0kts
09-Oct-18 17:56 34.102166 -117.224730 93 1161ft 0kts
09-Oct-18 17:57 34.102166 -117.224730 93 1161ft 0kts
09-Oct-18 17:58 34.102166 -117.224730 93 1161ft 0kts
09-Oct-18 17:59 34.102166 -117.224730 93 1161ft 0kts
09-Oct-18 18:00 34.102166 -117.224730 93 1161ft 0kts
09-Oct-18 18:01 34.102166 -117.224730 93 1161ft 0kts
09-Oct-18 18:02 34.100337 -117.225555 235 1161ft 14kts
09-Oct-18 18:03 34.099488 -117.226944 70 1161ft 11kts
09-Oct-18 18:04 34.099905 -117.225490 68 1161ft 10kts
09-Oct-18 18:05 34.101325 -117.220706 72 1161ft 17kts
09-Oct-18 18:06 34.100745 -117.219725 162 1161ft 0kts
09-Oct-18 18:07 34.100668 -117.219696 162 1161ft 3kts
09-Oct-18 18:08 34.097192 -117.228483 250 1256ft 81kts
09-Oct-18 18:09 34.090697 -117.255573 293 2028ft 86kts
09-Oct-18 18:10 34.110163 -117.275797 316 2689ft 92kts
09-Oct-18 18:11 34.127428 -117.295993 315 3480ft 82kts
09-Oct-18 18:12 34.143398 -117.314791 315 4171ft 84kts
09-Oct-18 18:13 34.165777 -117.341081 316 4516ft 117kts
09-Oct-18 18:14 34.181046 -117.365172 266 4504ft 109kts
09-Oct-18 18:15 34.163508 -117.401764 237 4500ft 108kts
09-Oct-18 18:16 34.149561 -117.428332 237 4163ft 116kts
09-Oct-18 18:17 34.131908 -117.461886 237 3664ft 119kts
09-Oct-18 18:18 34.114695 -117.494500 237 3513ft 112kts
09-Oct-18 18:19 34.095266 -117.531239 237 3512ft 110kts
09-Oct-18 18:20 34.081548 -117.557137 237 3512ft 110kts
09-Oct-18 18:21 34.064988 -117.588356 237 3512ft 110kts
09-Oct-18 18:22 34.048966 -117.619773 250 3510ft 110kts
09-Oct-18 18:23 34.051788 -117.655742 276 3505ft 110kts
09-Oct-18 18:24 34.055165 -117.691995 276 3505ft 110kts
09-Oct-18 18:25 34.058564 -117.728714 276 3505ft 110kts
09-Oct-18 18:26 34.061960 -117.765492 276 3505ft 110kts
09-Oct-18 18:27 34.065335 -117.802123 276 3505ft 110kts
09-Oct-18 18:28 34.068695 -117.838882 275 3505ft 110kts
09-Oct-18 18:29 34.072067 -117.876007 276 3402ft 116kts
09-Oct-18 18:30 34.078461 -117.914050 284 2899ft 110kts
09-Oct-18 18:31 34.087286 -117.948829 291 2304ft 112kts
09-Oct-18 18:32 34.098238 -117.982770 291 1594ft 100kts
09-Oct-18 18:33 34.106854 -118.011145 284 791ft 80kts
09-Oct-18 18:34 34.097984 -118.028011 205 467ft 63kts
09-Oct-18 18:35 34.085483 -118.035114 205 299ft 24kts
09-Oct-18 18:36 34.083020 -118.035977 114 299ft 0kts
09-Oct-18 18:37 34.083020 -118.035977 114 299ft 0kts
09-Oct-18 18:38 34.082849 -118.034987 29 299ft 10kts
09-Oct-18 18:39 34.083058 -118.035244 295 299ft 0kts
09-Oct-18 18:40 34.083058 -118.035244 295 299ft 0kts
09-Oct-18 18:41 34.083058 -118.035244 295 299ft 0kts
09-Oct-18 18:42 34.083058 -118.035244 295 299ft 0kts
09-Oct-18 18:43 34.083058 -118.035244 295 299ft 0kts
09-Oct-18 18:44 34.083058 -118.035244 295 299ft 0kts
09-Oct-18 18:45 34.083058 -118.035244 295 299ft 0kts
09-Oct-18 18:46 34.083058 -118.035244 295 299ft 0kts
09-Oct-18 18:47 34.083058 -118.035244 295 299ft 0kts
09-Oct-18 18:48 34.083058 -118.035244 295 299ft 0kts
09-Oct-18 18:49 34.083058 -118.035244 295 299ft 0kts

Navigation Log

Ident Type
1. KSBD Airport
2. KEMT Airport